Eckert, Colorado
Current Conditions -  °F | °C
As of 7:15 PM on Friday 24 Oct 2014 (Local Time) from KAJZ Reporting Station
Clear Clear  
Wind Chill: 67°   Ceiling: Unl
Heat Index: 67°   Visibility: 10mi
Dew Point: 35°   Wind: 0mph
Humidity: 31%   Direction: NA
Pressure: 30.23"   Gusts: NA
Location:  38.84°N, 107.96°W
Report Text: KAJZ 250115Z AUTO 00000KT 10SM CLR 19/02 A3023 RMK AO2 T01940016
Loading
Personal Weather Stations






























Interactive Weather Map
Tropical Storm Tracking
New forecast layout! Learn more

10-Day Weather Forecast

Advertisements
Track Severe Weather on mobile